Terminal Aerodrome Forecast
Issued by NWS Mt. Holly, NJ

Home | Current Version | Previous Version | Text Only | Print | Product List | Glossary On
Versions: 1 2 3 4 5 6 7 8 9 10 11 12 13 14 15 16 17 18 19 20
000
FTUS41 KPHI 250524
TAFACY
TAF
KACY 250524Z 2506/2606 24005KT P6SM BKN250
     FM251000 30005KT P6SM SCT120
     FM251700 25010G18KT P6SM FEW250
     FM260000 23005KT P6SM SKC=

USA.gov is the U.S. government's official web portal to all federal, state and local government web resources and services.